Balhash, Kazakhstan
Current Conditions -  °F | °C
As of 5:30 PM on Thursday 29 Jan 2015 (Local Time) from UAAH Reporting Station
Clear Clear  
Wind Chill: -11°   Ceiling: Unl
Heat Index:   Visibility: 6mi
Dew Point: -4°   Wind: 9mph
Humidity: 72%   Direction: 60°ENE
Pressure: 30.36"   Gusts: NA
Location:  46.8°N, 75.08°E
Report Text: UAAH 291130Z 06004MPS CAVOK M16/M20 Q1028 R05/450140 NOSIG RMKQFE733/0978
Loading
Personal Weather Stations






























Interactive Weather Map New forecast layout! Learn more

10-Day Weather Forecast

Advertisements
Track Severe Weather on mobile